sensor_id;sensor_type;location;lat;lon;timestamp;temperature;humidity
11812;DHT22;5963;50.184;9.162;2023-09-30T00:01:29;16.00;99.90
11812;DHT22;5963;50.184;9.162;2023-09-30T00:03:57;16.00;99.90
11812;DHT22;5963;50.184;9.162;2023-09-30T00:06:27;16.00;99.90
11812;DHT22;5963;50.184;9.162;2023-09-30T00:08:55;16.10;99.90
11812;DHT22;5963;50.184;9.162;2023-09-30T00:11:23;16.00;99.90
11812;DHT22;5963;50.184;9.162;2023-09-30T00:13:51;15.90;99.90
11812;DHT22;5963;50.184;9.162;2023-09-30T00:16:18;15.90;99.90
11812;DHT22;5963;50.184;9.162;2023-09-30T00:18:48;15.90;99.90
11812;DHT22;5963;50.184;9.162;2023-09-30T00:21:16;15.90;99.90
11812;DHT22;5963;50.184;9.162;2023-09-30T00:23:44;15.80;99.90
11812;DHT22;5963;50.184;9.162;2023-09-30T00:26:12;15.80;99.90
11812;DHT22;5963;50.184;9.162;2023-09-30T00:28:40;15.80;99.90
11812;DHT22;5963;50.184;9.162;2023-09-30T00:31:09;15.80;99.90
11812;DHT22;5963;50.184;9.162;2023-09-30T00:33:37;15.60;99.90
11812;DHT22;5963;50.184;9.162;2023-09-30T00:36:08;15.60;99.90
11812;DHT22;5963;50.184;9.162;2023-09-30T00:38:36;15.50;99.90
11812;DHT22;5963;50.184;9.162;2023-09-30T00:41:04;15.50;99.90
11812;DHT22;5963;50.184;9.162;2023-09-30T00:43:33;15.40;99.90
11812;DHT22;5963;50.184;9.162;2023-09-30T00:46:02;15.50;99.90
11812;DHT22;5963;50.184;9.162;2023-09-30T00:48:33;15.40;99.90
11812;DHT22;5963;50.184;9.162;2023-09-30T00:51:03;15.20;99.90
11812;DHT22;5963;50.184;9.162;2023-09-30T00:53:32;15.20;99.90
11812;DHT22;5963;50.184;9.162;2023-09-30T00:56:00;15.10;99.90
11812;DHT22;5963;50.184;9.162;2023-09-30T00:58:29;15.10;99.90
11812;DHT22;5963;50.184;9.162;2023-09-30T01:00:58;15.10;99.90
11812;DHT22;5963;50.184;9.162;2023-09-30T01:03:26;15.00;99.90
11812;DHT22;5963;50.184;9.162;2023-09-30T01:05:54;15.10;99.90
11812;DHT22;5963;50.184;9.162;2023-09-30T01:08:22;15.10;99.90
11812;DHT22;5963;50.184;9.162;2023-09-30T01:10:51;15.10;99.90
11812;DHT22;5963;50.184;9.162;2023-09-30T01:13:19;15.10;99.90
11812;DHT22;5963;50.184;9.162;2023-09-30T01:15:47;15.10;99.90
11812;DHT22;5963;50.184;9.162;2023-09-30T01:18:15;15.10;99.90
11812;DHT22;5963;50.184;9.162;2023-09-30T01:20:43;15.10;99.90
11812;DHT22;5963;50.184;9.162;2023-09-30T01:23:13;15.00;99.90
11812;DHT22;5963;50.184;9.162;2023-09-30T01:25:41;15.10;99.90
11812;DHT22;5963;50.184;9.162;2023-09-30T01:28:10;15.00;99.90
11812;DHT22;5963;50.184;9.162;2023-09-30T01:30:38;15.00;99.90
11812;DHT22;5963;50.184;9.162;2023-09-30T01:33:06;15.00;99.90
11812;DHT22;5963;50.184;9.162;2023-09-30T01:35:34;14.90;99.90
11812;DHT22;5963;50.184;9.162;2023-09-30T01:38:02;15.00;99.90
11812;DHT22;5963;50.184;9.162;2023-09-30T01:40:32;14.90;99.90
11812;DHT22;5963;50.184;9.162;2023-09-30T01:43:00;14.90;99.90
11812;DHT22;5963;50.184;9.162;2023-09-30T01:45:28;14.90;99.90
11812;DHT22;5963;50.184;9.162;2023-09-30T01:47:56;14.90;99.90
11812;DHT22;5963;50.184;9.162;2023-09-30T01:50:24;14.90;99.90
11812;DHT22;5963;50.184;9.162;2023-09-30T01:52:52;14.70;99.90
11812;DHT22;5963;50.184;9.162;2023-09-30T01:55:20;14.70;99.90
11812;DHT22;5963;50.184;9.162;2023-09-30T01:57:49;14.70;99.90
11812;DHT22;5963;50.184;9.162;2023-09-30T02:00:17;14.50;99.90
11812;DHT22;5963;50.184;9.162;2023-09-30T02:02:45;14.40;99.90
11812;DHT22;5963;50.184;9.162;2023-09-30T02:05:13;14.30;99.90
11812;DHT22;5963;50.184;9.162;2023-09-30T02:07:41;14.30;99.90
11812;DHT22;5963;50.184;9.162;2023-09-30T02:10:10;14.30;99.90
11812;DHT22;5963;50.184;9.162;2023-09-30T02:12:38;14.20;99.90
11812;DHT22;5963;50.184;9.162;2023-09-30T02:15:08;14.20;99.90
11812;DHT22;5963;50.184;9.162;2023-09-30T02:17:37;14.10;99.90
11812;DHT22;5963;50.184;9.162;2023-09-30T02:20:06;14.20;99.90
11812;DHT22;5963;50.184;9.162;2023-09-30T02:22:45;14.30;99.90
11812;DHT22;5963;50.184;9.162;2023-09-30T02:25:14;14.30;99.90
11812;DHT22;5963;50.184;9.162;2023-09-30T02:27:42;14.30;99.90
11812;DHT22;5963;50.184;9.162;2023-09-30T02:30:12;14.30;99.90
11812;DHT22;5963;50.184;9.162;2023-09-30T02:32:43;14.40;99.90
11812;DHT22;5963;50.184;9.162;2023-09-30T02:35:13;14.40;99.90
11812;DHT22;5963;50.184;9.162;2023-09-30T02:37:42;14.50;99.90
11812;DHT22;5963;50.184;9.162;2023-09-30T02:40:10;14.50;99.90
11812;DHT22;5963;50.184;9.162;2023-09-30T02:42:41;14.50;99.90
11812;DHT22;5963;50.184;9.162;2023-09-30T02:45:12;14.50;99.90
11812;DHT22;5963;50.184;9.162;2023-09-30T02:47:40;14.50;99.90
11812;DHT22;5963;50.184;9.162;2023-09-30T02:50:09;14.40;99.90
11812;DHT22;5963;50.184;9.162;2023-09-30T02:52:38;14.30;99.90
11812;DHT22;5963;50.184;9.162;2023-09-30T02:55:08;14.20;99.90
11812;DHT22;5963;50.184;9.162;2023-09-30T02:57:36;14.00;99.90
11812;DHT22;5963;50.184;9.162;2023-09-30T03:00:05;13.80;99.90
11812;DHT22;5963;50.184;9.162;2023-09-30T03:02:42;13.70;99.90
11812;DHT22;5963;50.184;9.162;2023-09-30T03:05:10;13.70;99.90
11812;DHT22;5963;50.184;9.162;2023-09-30T03:07:38;13.70;99.90
11812;DHT22;5963;50.184;9.162;2023-09-30T03:10:08;13.70;99.90
11812;DHT22;5963;50.184;9.162;2023-09-30T03:12:36;13.80;99.90
11812;DHT22;5963;50.184;9.162;2023-09-30T03:15:06;14.00;99.90
11812;DHT22;5963;50.184;9.162;2023-09-30T03:17:35;13.90;99.90
11812;DHT22;5963;50.184;9.162;2023-09-30T03:20:07;14.00;99.90
11812;DHT22;5963;50.184;9.162;2023-09-30T03:22:38;14.00;99.90
11812;DHT22;5963;50.184;9.162;2023-09-30T03:25:08;14.00;99.90
11812;DHT22;5963;50.184;9.162;2023-09-30T03:27:36;13.90;99.90
11812;DHT22;5963;50.184;9.162;2023-09-30T03:30:06;13.90;99.90
11812;DHT22;5963;50.184;9.162;2023-09-30T03:32:35;13.90;99.90
11812;DHT22;5963;50.184;9.162;2023-09-30T03:35:07;13.80;99.90
11812;DHT22;5963;50.184;9.162;2023-09-30T03:37:37;13.80;99.90
11812;DHT22;5963;50.184;9.162;2023-09-30T03:40:06;13.80;99.90
11812;DHT22;5963;50.184;9.162;2023-09-30T03:42:41;13.90;99.90
11812;DHT22;5963;50.184;9.162;2023-09-30T03:45:10;13.90;99.90
11812;DHT22;5963;50.184;9.162;2023-09-30T03:47:41;13.80;99.90
11812;DHT22;5963;50.184;9.162;2023-09-30T03:50:11;13.70;99.90
11812;DHT22;5963;50.184;9.162;2023-09-30T03:52:42;13.50;99.90
11812;DHT22;5963;50.184;9.162;2023-09-30T03:55:14;13.40;99.90
11812;DHT22;5963;50.184;9.162;2023-09-30T03:57:42;13.40;99.90
11812;DHT22;5963;50.184;9.162;2023-09-30T04:00:13;13.30;99.90
11812;DHT22;5963;50.184;9.162;2023-09-30T04:02:46;13.20;99.90
11812;DHT22;5963;50.184;9.162;2023-09-30T04:05:18;13.20;99.90
11812;DHT22;5963;50.184;9.162;2023-09-30T04:07:46;13.00;99.90
11812;DHT22;5963;50.184;9.162;2023-09-30T04:10:15;12.90;99.90
11812;DHT22;5963;50.184;9.162;2023-09-30T04:12:47;13.00;99.90
11812;DHT22;5963;50.184;9.162;2023-09-30T04:15:15;12.90;99.90
11812;DHT22;5963;50.184;9.162;2023-09-30T04:17:43;12.90;99.90
11812;DHT22;5963;50.184;9.162;2023-09-30T04:20:11;12.90;99.90
11812;DHT22;5963;50.184;9.162;2023-09-30T04:22:45;12.90;99.90
11812;DHT22;5963;50.184;9.162;2023-09-30T04:25:15;12.80;99.90
11812;DHT22;5963;50.184;9.162;2023-09-30T04:27:44;12.80;99.90
11812;DHT22;5963;50.184;9.162;2023-09-30T04:30:15;12.80;99.90
11812;DHT22;5963;50.184;9.162;2023-09-30T04:32:43;12.90;99.90
11812;DHT22;5963;50.184;9.162;2023-09-30T04:35:11;12.90;99.90
11812;DHT22;5963;50.184;9.162;2023-09-30T04:37:40;12.80;99.90
11812;DHT22;5963;50.184;9.162;2023-09-30T04:40:10;12.70;99.90
11812;DHT22;5963;50.184;9.162;2023-09-30T04:42:42;12.70;99.90
11812;DHT22;5963;50.184;9.162;2023-09-30T04:45:11;12.60;99.90
11812;DHT22;5963;50.184;9.162;2023-09-30T04:47:41;12.60;99.90
11812;DHT22;5963;50.184;9.162;2023-09-30T04:50:11;12.60;99.90
11812;DHT22;5963;50.184;9.162;2023-09-30T04:52:43;12.70;99.90
11812;DHT22;5963;50.184;9.162;2023-09-30T04:55:14;12.70;99.90
11812;DHT22;5963;50.184;9.162;2023-09-30T04:57:44;12.60;99.90
11812;DHT22;5963;50.184;9.162;2023-09-30T05:00:13;12.50;99.90
11812;DHT22;5963;50.184;9.162;2023-09-30T05:02:42;12.40;99.90
11812;DHT22;5963;50.184;9.162;2023-09-30T05:05:11;12.40;99.90
11812;DHT22;5963;50.184;9.162;2023-09-30T05:07:39;12.40;99.90
11812;DHT22;5963;50.184;9.162;2023-09-30T05:10:08;12.30;99.90
11812;DHT22;5963;50.184;9.162;2023-09-30T05:12:41;12.30;99.90
11812;DHT22;5963;50.184;9.162;2023-09-30T05:15:13;12.50;99.90
11812;DHT22;5963;50.184;9.162;2023-09-30T05:17:43;12.50;99.90
11812;DHT22;5963;50.184;9.162;2023-09-30T05:20:12;12.60;99.90
11812;DHT22;5963;50.184;9.162;2023-09-30T05:22:43;12.50;99.90
11812;DHT22;5963;50.184;9.162;2023-09-30T05:25:12;12.40;99.90
11812;DHT22;5963;50.184;9.162;2023-09-30T05:27:44;12.30;99.90
11812;DHT22;5963;50.184;9.162;2023-09-30T05:30:15;12.30;99.90
11812;DHT22;5963;50.184;9.162;2023-09-30T05:32:46;12.30;99.90
11812;DHT22;5963;50.184;9.162;2023-09-30T05:35:14;12.40;99.90
11812;DHT22;5963;50.184;9.162;2023-09-30T05:37:44;12.50;99.90
11812;DHT22;5963;50.184;9.162;2023-09-30T05:40:13;12.60;99.90
11812;DHT22;5963;50.184;9.162;2023-09-30T05:42:51;12.70;99.90
11812;DHT22;5963;50.184;9.162;2023-09-30T05:47:50;12.80;99.90
11812;DHT22;5963;50.184;9.162;2023-09-30T05:50:19;12.70;99.90
11812;DHT22;5963;50.184;9.162;2023-09-30T05:52:51;12.70;99.90
11812;DHT22;5963;50.184;9.162;2023-09-30T05:55:19;12.50;99.90
11812;DHT22;5963;50.184;9.162;2023-09-30T05:57:50;12.40;99.90
11812;DHT22;5963;50.184;9.162;2023-09-30T06:00:19;12.30;99.90
11812;DHT22;5963;50.184;9.162;2023-09-30T06:02:49;12.40;99.90
11812;DHT22;5963;50.184;9.162;2023-09-30T06:05:19;12.40;99.90
11812;DHT22;5963;50.184;9.162;2023-09-30T06:07:48;12.50;99.90
11812;DHT22;5963;50.184;9.162;2023-09-30T06:10:16;12.50;99.90
11812;DHT22;5963;50.184;9.162;2023-09-30T06:12:46;12.50;99.90
11812;DHT22;5963;50.184;9.162;2023-09-30T06:15:16;12.50;99.90
11812;DHT22;5963;50.184;9.162;2023-09-30T06:17:49;12.60;99.90
11812;DHT22;5963;50.184;9.162;2023-09-30T06:20:19;12.80;99.90
11812;DHT22;5963;50.184;9.162;2023-09-30T06:22:49;12.90;99.90
11812;DHT22;5963;50.184;9.162;2023-09-30T06:25:17;13.00;99.90
11812;DHT22;5963;50.184;9.162;2023-09-30T06:27:46;13.00;99.90
11812;DHT22;5963;50.184;9.162;2023-09-30T06:30:16;13.00;99.90
11812;DHT22;5963;50.184;9.162;2023-09-30T06:32:44;13.00;99.90
11812;DHT22;5963;50.184;9.162;2023-09-30T06:35:12;13.20;99.90
11812;DHT22;5963;50.184;9.162;2023-09-30T06:37:41;13.30;99.90
11812;DHT22;5963;50.184;9.162;2023-09-30T06:40:12;13.20;99.90
11812;DHT22;5963;50.184;9.162;2023-09-30T06:42:40;13.40;99.90
11812;DHT22;5963;50.184;9.162;2023-09-30T06:45:09;13.60;99.90
11812;DHT22;5963;50.184;9.162;2023-09-30T06:47:40;13.70;99.90
11812;DHT22;5963;50.184;9.162;2023-09-30T06:50:10;13.80;99.90
11812;DHT22;5963;50.184;9.162;2023-09-30T06:52:41;13.90;99.90
11812;DHT22;5963;50.184;9.162;2023-09-30T06:55:09;13.90;99.90
11812;DHT22;5963;50.184;9.162;2023-09-30T06:57:40;13.90;99.90
11812;DHT22;5963;50.184;9.162;2023-09-30T07:00:10;13.90;99.90
11812;DHT22;5963;50.184;9.162;2023-09-30T07:02:40;14.00;99.90
11812;DHT22;5963;50.184;9.162;2023-09-30T07:05:10;14.10;99.90
11812;DHT22;5963;50.184;9.162;2023-09-30T07:07:39;14.20;99.90
11812;DHT22;5963;50.184;9.162;2023-09-30T07:10:10;14.30;99.90
11812;DHT22;5963;50.184;9.162;2023-09-30T07:12:38;14.10;99.90
11812;DHT22;5963;50.184;9.162;2023-09-30T07:15:07;13.90;99.90
11812;DHT22;5963;50.184;9.162;2023-09-30T07:17:36;14.00;99.90
11812;DHT22;5963;50.184;9.162;2023-09-30T07:20:08;14.10;99.90
11812;DHT22;5963;50.184;9.162;2023-09-30T07:22:37;14.00;99.90
11812;DHT22;5963;50.184;9.162;2023-09-30T07:25:08;14.20;99.90
11812;DHT22;5963;50.184;9.162;2023-09-30T07:27:36;14.30;99.90
11812;DHT22;5963;50.184;9.162;2023-09-30T07:30:06;14.60;99.90
11812;DHT22;5963;50.184;9.162;2023-09-30T07:32:34;15.00;99.90
11812;DHT22;5963;50.184;9.162;2023-09-30T07:35:02;15.00;99.90
11812;DHT22;5963;50.184;9.162;2023-09-30T07:37:31;15.20;99.90
11812;DHT22;5963;50.184;9.162;2023-09-30T07:40:00;15.40;99.90
11812;DHT22;5963;50.184;9.162;2023-09-30T07:42:28;15.40;99.90
11812;DHT22;5963;50.184;9.162;2023-09-30T07:44:57;15.50;99.90
11812;DHT22;5963;50.184;9.162;2023-09-30T07:47:25;15.60;99.90
11812;DHT22;5963;50.184;9.162;2023-09-30T07:49:53;15.60;99.90
11812;DHT22;5963;50.184;9.162;2023-09-30T07:52:21;15.70;99.90
11812;DHT22;5963;50.184;9.162;2023-09-30T07:54:52;15.70;99.90
11812;DHT22;5963;50.184;9.162;2023-09-30T07:57:20;15.70;99.90
11812;DHT22;5963;50.184;9.162;2023-09-30T07:59:48;15.70;99.90
11812;DHT22;5963;50.184;9.162;2023-09-30T08:02:16;15.90;99.90
11812;DHT22;5963;50.184;9.162;2023-09-30T08:04:44;16.00;99.90
11812;DHT22;5963;50.184;9.162;2023-09-30T08:07:12;15.90;99.90
11812;DHT22;5963;50.184;9.162;2023-09-30T08:09:40;15.80;99.90
11812;DHT22;5963;50.184;9.162;2023-09-30T08:12:10;16.00;99.90
11812;DHT22;5963;50.184;9.162;2023-09-30T08:14:39;16.10;99.90
11812;DHT22;5963;50.184;9.162;2023-09-30T08:17:07;16.20;99.90
11812;DHT22;5963;50.184;9.162;2023-09-30T08:19:35;16.20;99.90
11812;DHT22;5963;50.184;9.162;2023-09-30T08:22:03;16.00;99.90
11812;DHT22;5963;50.184;9.162;2023-09-30T08:24:31;16.10;99.90
11812;DHT22;5963;50.184;9.162;2023-09-30T08:26:59;16.20;99.90
11812;DHT22;5963;50.184;9.162;2023-09-30T08:29:28;16.20;99.90
11812;DHT22;5963;50.184;9.162;2023-09-30T08:31:56;16.20;99.90
11812;DHT22;5963;50.184;9.162;2023-09-30T08:34:24;16.30;99.90
11812;DHT22;5963;50.184;9.162;2023-09-30T08:36:52;16.50;99.90
11812;DHT22;5963;50.184;9.162;2023-09-30T08:39:20;16.40;99.90
11812;DHT22;5963;50.184;9.162;2023-09-30T08:41:49;16.20;99.90
11812;DHT22;5963;50.184;9.162;2023-09-30T08:44:17;16.20;99.90
11812;DHT22;5963;50.184;9.162;2023-09-30T08:46:47;16.30;99.90
11812;DHT22;5963;50.184;9.162;2023-09-30T08:49:15;16.20;99.90
11812;DHT22;5963;50.184;9.162;2023-09-30T08:51:43;16.20;99.90
11812;DHT22;5963;50.184;9.162;2023-09-30T08:54:11;16.10;99.90
11812;DHT22;5963;50.184;9.162;2023-09-30T08:56:41;16.10;99.90
11812;DHT22;5963;50.184;9.162;2023-09-30T08:59:11;16.00;99.90
11812;DHT22;5963;50.184;9.162;2023-09-30T09:01:40;16.00;99.90
11812;DHT22;5963;50.184;9.162;2023-09-30T09:04:09;16.10;99.90
11812;DHT22;5963;50.184;9.162;2023-09-30T09:06:38;16.10;99.90
11812;DHT22;5963;50.184;9.162;2023-09-30T09:09:15;16.20;99.90
11812;DHT22;5963;50.184;9.162;2023-09-30T09:11:44;15.90;99.90
11812;DHT22;5963;50.184;9.162;2023-09-30T09:14:13;16.10;99.90
11812;DHT22;5963;50.184;9.162;2023-09-30T09:16:51;16.50;99.90
11812;DHT22;5963;50.184;9.162;2023-09-30T09:19:22;16.90;99.90
11812;DHT22;5963;50.184;9.162;2023-09-30T09:21:54;17.30;99.90
11812;DHT22;5963;50.184;9.162;2023-09-30T09:24:33;17.40;99.90
11812;DHT22;5963;50.184;9.162;2023-09-30T09:27:05;17.50;99.90
11812;DHT22;5963;50.184;9.162;2023-09-30T09:29:33;18.20;99.90
11812;DHT22;5963;50.184;9.162;2023-09-30T09:32:12;18.40;99.90
11812;DHT22;5963;50.184;9.162;2023-09-30T09:34:43;18.70;99.90
11812;DHT22;5963;50.184;9.162;2023-09-30T09:37:15;18.80;99.90
11812;DHT22;5963;50.184;9.162;2023-09-30T09:39:51;19.00;99.90
11812;DHT22;5963;50.184;9.162;2023-09-30T09:42:29;19.10;99.90
11812;DHT22;5963;50.184;9.162;2023-09-30T09:45:01;19.10;99.90
11812;DHT22;5963;50.184;9.162;2023-09-30T09:47:31;19.10;99.90
11812;DHT22;5963;50.184;9.162;2023-09-30T09:50:03;19.20;99.90
11812;DHT22;5963;50.184;9.162;2023-09-30T09:52:34;19.60;99.90
11812;DHT22;5963;50.184;9.162;2023-09-30T09:55:03;19.80;99.90
11812;DHT22;5963;50.184;9.162;2023-09-30T09:57:32;19.60;99.90
11812;DHT22;5963;50.184;9.162;2023-09-30T10:00:02;19.60;99.90
11812;DHT22;5963;50.184;9.162;2023-09-30T10:02:32;19.70;99.90
11812;DHT22;5963;50.184;9.162;2023-09-30T10:05:02;20.00;99.90
11812;DHT22;5963;50.184;9.162;2023-09-30T10:07:42;20.00;99.90
11812;DHT22;5963;50.184;9.162;2023-09-30T10:10:15;19.60;99.90
11812;DHT22;5963;50.184;9.162;2023-09-30T10:12:44;19.40;99.90
11812;DHT22;5963;50.184;9.162;2023-09-30T10:15:36;19.10;99.90
11812;DHT22;5963;50.184;9.162;2023-09-30T10:18:07;19.20;99.90
11812;DHT22;5963;50.184;9.162;2023-09-30T10:20:45;19.40;99.90
11812;DHT22;5963;50.184;9.162;2023-09-30T10:23:25;19.70;99.90
11812;DHT22;5963;50.184;9.162;2023-09-30T10:26:13;20.00;99.90
11812;DHT22;5963;50.184;9.162;2023-09-30T10:28:45;19.70;99.90
11812;DHT22;5963;50.184;9.162;2023-09-30T10:31:15;19.50;99.90
11812;DHT22;5963;50.184;9.162;2023-09-30T10:34:19;19.90;99.90
11812;DHT22;5963;50.184;9.162;2023-09-30T10:36:49;20.30;99.90
11812;DHT22;5963;50.184;9.162;2023-09-30T10:39:57;20.10;99.90
11812;DHT22;5963;50.184;9.162;2023-09-30T10:42:46;20.30;99.90
11812;DHT22;5963;50.184;9.162;2023-09-30T10:45:42;20.20;99.90
11812;DHT22;5963;50.184;9.162;2023-09-30T10:48:36;20.20;99.90
11812;DHT22;5963;50.184;9.162;2023-09-30T10:51:15;20.40;99.90
11812;DHT22;5963;50.184;9.162;2023-09-30T10:53:48;20.50;99.90
11812;DHT22;5963;50.184;9.162;2023-09-30T10:56:17;20.30;99.90
11812;DHT22;5963;50.184;9.162;2023-09-30T10:58:46;20.30;99.90
11812;DHT22;5963;50.184;9.162;2023-09-30T11:01:16;20.60;99.90
11812;DHT22;5963;50.184;9.162;2023-09-30T11:03:45;20.60;99.90
11812;DHT22;5963;50.184;9.162;2023-09-30T11:06:15;20.60;99.90
11812;DHT22;5963;50.184;9.162;2023-09-30T11:08:52;20.90;99.90
11812;DHT22;5963;50.184;9.162;2023-09-30T11:11:35;21.00;99.90
11812;DHT22;5963;50.184;9.162;2023-09-30T11:14:17;21.00;99.90
11812;DHT22;5963;50.184;9.162;2023-09-30T11:16:45;21.00;99.90
11812;DHT22;5963;50.184;9.162;2023-09-30T11:19:13;20.80;99.90
11812;DHT22;5963;50.184;9.162;2023-09-30T11:21:43;20.40;99.90
11812;DHT22;5963;50.184;9.162;2023-09-30T11:24:13;20.20;99.90
11812;DHT22;5963;50.184;9.162;2023-09-30T11:26:42;20.10;99.90
11812;DHT22;5963;50.184;9.162;2023-09-30T11:29:12;20.20;99.90
11812;DHT22;5963;50.184;9.162;2023-09-30T11:31:40;20.20;99.90
11812;DHT22;5963;50.184;9.162;2023-09-30T11:34:10;20.20;99.90
11812;DHT22;5963;50.184;9.162;2023-09-30T11:36:39;19.90;99.90
11812;DHT22;5963;50.184;9.162;2023-09-30T11:39:09;20.00;99.90
11812;DHT22;5963;50.184;9.162;2023-09-30T11:41:41;20.30;99.90
11812;DHT22;5963;50.184;9.162;2023-09-30T11:44:12;20.30;99.90
11812;DHT22;5963;50.184;9.162;2023-09-30T11:46:49;20.30;99.90
11812;DHT22;5963;50.184;9.162;2023-09-30T11:49:26;20.30;99.90
11812;DHT22;5963;50.184;9.162;2023-09-30T11:51:55;20.30;99.90
11812;DHT22;5963;50.184;9.162;2023-09-30T11:54:28;20.30;99.90
11812;DHT22;5963;50.184;9.162;2023-09-30T11:56:59;20.50;99.90
11812;DHT22;5963;50.184;9.162;2023-09-30T11:59:27;20.70;99.90
11812;DHT22;5963;50.184;9.162;2023-09-30T12:01:56;20.70;99.90
11812;DHT22;5963;50.184;9.162;2023-09-30T12:04:39;20.70;99.90
11812;DHT22;5963;50.184;9.162;2023-09-30T12:07:11;20.70;99.90
11812;DHT22;5963;50.184;9.162;2023-09-30T12:09:39;20.50;99.90
11812;DHT22;5963;50.184;9.162;2023-09-30T12:12:09;20.40;99.90
11812;DHT22;5963;50.184;9.162;2023-09-30T12:14:39;20.60;99.90
11812;DHT22;5963;50.184;9.162;2023-09-30T12:17:07;20.50;99.90
11812;DHT22;5963;50.184;9.162;2023-09-30T12:19:39;20.60;99.90
11812;DHT22;5963;50.184;9.162;2023-09-30T12:22:08;20.80;99.90
11812;DHT22;5963;50.184;9.162;2023-09-30T12:24:38;20.70;99.90
11812;DHT22;5963;50.184;9.162;2023-09-30T12:27:06;20.70;99.90
11812;DHT22;5963;50.184;9.162;2023-09-30T12:29:36;20.70;99.90
11812;DHT22;5963;50.184;9.162;2023-09-30T12:32:07;20.60;99.90
11812;DHT22;5963;50.184;9.162;2023-09-30T12:34:36;20.60;99.90
11812;DHT22;5963;50.184;9.162;2023-09-30T12:37:04;20.80;99.90
11812;DHT22;5963;50.184;9.162;2023-09-30T12:39:33;20.80;99.90
11812;DHT22;5963;50.184;9.162;2023-09-30T12:42:01;21.00;99.90
11812;DHT22;5963;50.184;9.162;2023-09-30T12:44:37;21.10;99.90
11812;DHT22;5963;50.184;9.162;2023-09-30T12:47:05;21.10;99.90
11812;DHT22;5963;50.184;9.162;2023-09-30T12:49:33;21.10;99.90
11812;DHT22;5963;50.184;9.162;2023-09-30T12:52:01;21.10;99.90
11812;DHT22;5963;50.184;9.162;2023-09-30T12:54:29;21.00;99.90
11812;DHT22;5963;50.184;9.162;2023-09-30T12:56:57;21.10;99.90
11812;DHT22;5963;50.184;9.162;2023-09-30T12:59:24;21.30;99.90
11812;DHT22;5963;50.184;9.162;2023-09-30T13:01:54;21.20;99.90
11812;DHT22;5963;50.184;9.162;2023-09-30T13:04:23;20.80;99.90
11812;DHT22;5963;50.184;9.162;2023-09-30T13:06:52;21.00;99.90
11812;DHT22;5963;50.184;9.162;2023-09-30T13:09:20;21.20;99.90
11812;DHT22;5963;50.184;9.162;2023-09-30T13:11:49;21.10;99.90
11812;DHT22;5963;50.184;9.162;2023-09-30T13:14:17;20.90;99.90
11812;DHT22;5963;50.184;9.162;2023-09-30T13:16:45;20.90;99.90
11812;DHT22;5963;50.184;9.162;2023-09-30T13:19:14;20.80;99.90
11812;DHT22;5963;50.184;9.162;2023-09-30T13:21:42;20.80;99.90
11812;DHT22;5963;50.184;9.162;2023-09-30T13:24:10;20.30;99.90
11812;DHT22;5963;50.184;9.162;2023-09-30T13:26:39;20.70;99.90
11812;DHT22;5963;50.184;9.162;2023-09-30T13:29:07;20.70;99.90
11812;DHT22;5963;50.184;9.162;2023-09-30T13:31:36;20.90;99.90
11812;DHT22;5963;50.184;9.162;2023-09-30T13:34:05;20.90;99.90
11812;DHT22;5963;50.184;9.162;2023-09-30T13:36:35;21.00;99.90
11812;DHT22;5963;50.184;9.162;2023-09-30T13:39:03;21.00;99.90
11812;DHT22;5963;50.184;9.162;2023-09-30T13:41:34;21.10;99.90
11812;DHT22;5963;50.184;9.162;2023-09-30T13:44:02;21.00;99.90
11812;DHT22;5963;50.184;9.162;2023-09-30T13:46:32;20.80;99.90
11812;DHT22;5963;50.184;9.162;2023-09-30T13:49:00;19.90;99.90
11812;DHT22;5963;50.184;9.162;2023-09-30T13:51:28;20.10;99.90
11812;DHT22;5963;50.184;9.162;2023-09-30T13:53:57;20.20;99.90
11812;DHT22;5963;50.184;9.162;2023-09-30T13:56:26;20.20;99.90
11812;DHT22;5963;50.184;9.162;2023-09-30T13:58:55;20.60;99.90
11812;DHT22;5963;50.184;9.162;2023-09-30T14:01:25;20.90;99.90
11812;DHT22;5963;50.184;9.162;2023-09-30T14:03:54;21.10;99.90
11812;DHT22;5963;50.184;9.162;2023-09-30T14:06:24;21.10;99.90
11812;DHT22;5963;50.184;9.162;2023-09-30T14:08:52;21.00;99.90
11812;DHT22;5963;50.184;9.162;2023-09-30T14:11:21;20.80;99.90
11812;DHT22;5963;50.184;9.162;2023-09-30T14:13:49;20.90;99.90
11812;DHT22;5963;50.184;9.162;2023-09-30T14:16:17;20.80;99.90
11812;DHT22;5963;50.184;9.162;2023-09-30T14:18:45;20.70;99.90
11812;DHT22;5963;50.184;9.162;2023-09-30T14:21:14;20.40;99.90
11812;DHT22;5963;50.184;9.162;2023-09-30T14:23:42;20.40;99.90
11812;DHT22;5963;50.184;9.162;2023-09-30T14:26:10;20.40;99.90
11812;DHT22;5963;50.184;9.162;2023-09-30T14:28:39;20.60;99.90
11812;DHT22;5963;50.184;9.162;2023-09-30T14:31:08;20.60;99.90
11812;DHT22;5963;50.184;9.162;2023-09-30T14:33:36;20.50;99.90
11812;DHT22;5963;50.184;9.162;2023-09-30T14:36:05;20.40;99.90
11812;DHT22;5963;50.184;9.162;2023-09-30T14:38:33;20.40;99.90
11812;DHT22;5963;50.184;9.162;2023-09-30T14:41:06;20.20;99.90
11812;DHT22;5963;50.184;9.162;2023-09-30T14:43:35;20.10;99.90
11812;DHT22;5963;50.184;9.162;2023-09-30T14:46:05;19.90;99.90
11812;DHT22;5963;50.184;9.162;2023-09-30T14:48:33;19.90;99.90
11812;DHT22;5963;50.184;9.162;2023-09-30T14:51:02;19.60;99.90
11812;DHT22;5963;50.184;9.162;2023-09-30T14:53:31;19.40;99.90
11812;DHT22;5963;50.184;9.162;2023-09-30T14:55:59;19.30;99.90
11812;DHT22;5963;50.184;9.162;2023-09-30T14:58:27;19.20;99.90
11812;DHT22;5963;50.184;9.162;2023-09-30T15:00:55;19.30;99.90
11812;DHT22;5963;50.184;9.162;2023-09-30T15:03:25;19.20;99.90
11812;DHT22;5963;50.184;9.162;2023-09-30T15:05:58;19.10;99.90
11812;DHT22;5963;50.184;9.162;2023-09-30T15:08:28;18.90;99.90
11812;DHT22;5963;50.184;9.162;2023-09-30T15:10:56;18.70;99.90
11812;DHT22;5963;50.184;9.162;2023-09-30T15:13:24;18.30;99.90
11812;DHT22;5963;50.184;9.162;2023-09-30T15:15:52;17.60;99.90
11812;DHT22;5963;50.184;9.162;2023-09-30T15:18:24;17.10;99.90
11812;DHT22;5963;50.184;9.162;2023-09-30T15:20:52;16.90;99.90
11812;DHT22;5963;50.184;9.162;2023-09-30T15:23:20;16.70;99.90
11812;DHT22;5963;50.184;9.162;2023-09-30T15:25:48;16.50;99.90
11812;DHT22;5963;50.184;9.162;2023-09-30T15:28:16;16.30;99.90
11812;DHT22;5963;50.184;9.162;2023-09-30T15:30:44;16.00;99.90
11812;DHT22;5963;50.184;9.162;2023-09-30T15:33:12;15.80;99.90
11812;DHT22;5963;50.184;9.162;2023-09-30T15:35:41;15.70;99.90
11812;DHT22;5963;50.184;9.162;2023-09-30T15:38:09;15.60;99.90
11812;DHT22;5963;50.184;9.162;2023-09-30T15:40:50;15.70;99.90
11812;DHT22;5963;50.184;9.162;2023-09-30T15:43:19;15.70;99.90
11812;DHT22;5963;50.184;9.162;2023-09-30T15:45:48;15.70;99.90
11812;DHT22;5963;50.184;9.162;2023-09-30T15:48:16;15.50;99.90
11812;DHT22;5963;50.184;9.162;2023-09-30T15:50:46;15.40;99.90
11812;DHT22;5963;50.184;9.162;2023-09-30T15:53:14;15.40;99.90
11812;DHT22;5963;50.184;9.162;2023-09-30T15:55:42;15.40;99.90
11812;DHT22;5963;50.184;9.162;2023-09-30T15:58:10;15.40;99.90
11812;DHT22;5963;50.184;9.162;2023-09-30T16:00:39;15.20;99.90
11812;DHT22;5963;50.184;9.162;2023-09-30T16:03:09;15.20;99.90
11812;DHT22;5963;50.184;9.162;2023-09-30T16:05:38;15.30;99.90